Time;durP1;ratioP1;P1;durP2;ratioP2;P2;SDS_P1;SDS_P2;PMS_P1;PMS_P2;Temp;Humidity;BMP_temperature;BMP_pressure;BME280_temperature;BME280_humidity;BME280_pressure;Samples;Min_cycle;Max_cycle;Signal;HPM_P1;HPM_P2
2022/05/03 00:00:16;;;;;;;11.52;7.22;;;;;;;;;;5073784;28;20361;-78
2022/05/03 00:02:42;;;;;;;15.77;8.50;;;;;;;;;;5051262;28;20492;-78
2022/05/03 00:05:11;;;;;;;15.70;8.80;;;;;;;;;;5074430;28;20086;-78
2022/05/03 00:07:47;;;;;;;17.50;8.95;;;;;;;;;;5073613;28;20112;-78
2022/05/03 00:10:21;;;;;;;15.70;8.57;;;;;;;;;;5083979;28;20040;-78
2022/05/03 00:12:55;;;;;;;14.77;7.80;;;;;;;;;;5066996;28;20043;-78
2022/05/03 00:15:22;;;;;;;16.30;8.50;;;;;;;;;;5067329;28;20036;-78
2022/05/03 00:17:49;;;;;;;17.92;8.45;;;;;;;;;;5053654;28;20067;-78
2022/05/03 00:20:15;;;;;;;15.85;7.95;;;;;;;;;;5083732;28;20042;-78
2022/05/03 00:22:41;;;;;;;19.73;8.48;;;;;;;;;;5055045;28;20086;-78
2022/05/03 00:25:08;;;;;;;17.20;8.77;;;;;;;;;;5072313;28;20035;-78
2022/05/03 00:27:34;;;;;;;16.88;9.30;;;;;;;;;;5082102;28;20078;-78
2022/05/03 00:30:01;;;;;;;16.45;8.93;;;;;;;;;;5071186;28;20056;-78
2022/05/03 00:32:28;;;;;;;19.05;9.60;;;;;;;;;;5066465;28;20044;-78
2022/05/03 00:34:57;;;;;;;17.70;9.52;;;;;;;;;;5074321;28;20116;-78
2022/05/03 00:37:23;;;;;;;15.75;9.07;;;;;;;;;;5067056;28;20040;-78
2022/05/03 00:39:49;;;;;;;17.70;9.38;;;;;;;;;;5066869;28;20558;-78
2022/05/03 00:42:16;;;;;;;20.55;10.43;;;;;;;;;;5065859;28;20033;-78
2022/05/03 00:45:00;;;;;;;19.60;10.27;;;;;;;;;;5085752;28;20480;-78
2022/05/03 00:47:26;;;;;;;20.42;9.60;;;;;;;;;;5079359;28;20052;-78
2022/05/03 00:49:52;;;;;;;16.65;9.80;;;;;;;;;;5069531;28;20040;-78
2022/05/03 00:52:24;;;;;;;20.25;9.77;;;;;;;;;;5067402;28;20466;-78
2022/05/03 00:55:09;;;;;;;17.52;10.00;;;;;;;;;;5049654;28;20400;-78
2022/05/03 00:57:41;;;;;;;17.55;9.70;;;;;;;;;;5068592;28;20412;-78
2022/05/03 01:00:08;;;;;;;15.77;8.68;;;;;;;;;;5072899;28;20839;-78
2022/05/03 01:02:53;;;;;;;18.02;9.57;;;;;;;;;;5054489;28;20094;-78
2022/05/03 01:05:27;;;;;;;17.15;10.15;;;;;;;;;;5070039;28;20083;-78
2022/05/03 01:08:00;;;;;;;17.33;9.25;;;;;;;;;;5068665;28;20561;-78
2022/05/03 01:10:42;;;;;;;16.25;9.02;;;;;;;;;;5054229;28;20488;-78
2022/05/03 01:13:20;;;;;;;16.23;8.80;;;;;;;;;;5073139;28;20048;-78
2022/05/03 01:15:50;;;;;;;17.25;9.95;;;;;;;;;;5070558;28;20400;-78
2022/05/03 01:18:21;;;;;;;17.73;9.48;;;;;;;;;;5053553;28;20466;-78
2022/05/03 01:20:57;;;;;;;18.23;9.82;;;;;;;;;;5071970;28;20028;-78
2022/05/03 01:23:23;;;;;;;19.75;9.82;;;;;;;;;;5060444;28;20081;-78
2022/05/03 01:26:05;;;;;;;21.10;11.20;;;;;;;;;;5066107;28;20044;-78
2022/05/03 01:28:32;;;;;;;20.30;10.77;;;;;;;;;;5070020;28;20040;-78
2022/05/03 01:31:05;;;;;;;21.30;11.10;;;;;;;;;;5053084;28;20036;-78
2022/05/03 01:33:33;;;;;;;20.35;10.73;;;;;;;;;;5069873;28;20044;-79
2022/05/03 01:36:00;;;;;;;18.75;9.88;;;;;;;;;;5072702;28;20076;-79
2022/05/03 01:38:39;;;;;;;23.08;11.45;;;;;;;;;;5071410;28;20549;-79
2022/05/03 01:41:11;;;;;;;20.88;10.45;;;;;;;;;;5082724;28;20051;-79
2022/05/03 01:43:52;;;;;;;19.15;9.77;;;;;;;;;;5074439;28;20029;-79
2022/05/03 01:46:28;;;;;;;18.40;10.57;;;;;;;;;;5072212;28;20040;-79
2022/05/03 01:52:18;;;;;;;18.10;10.15;;;;;;;;;;5062890;28;20056;-79
2022/05/03 01:55:03;;;;;;;19.85;10.80;;;;;;;;;;5075331;28;20134;-79
2022/05/03 01:57:41;;;;;;;18.02;10.23;;;;;;;;;;5082871;28;20044;-79
2022/05/03 02:00:12;;;;;;;21.48;10.27;;;;;;;;;;5061635;28;20044;-79
2022/05/03 02:02:41;;;;;;;16.65;9.43;;;;;;;;;;5075425;28;20039;-79
2022/05/03 02:05:07;;;;;;;21.08;11.20;;;;;;;;;;5086251;28;20043;-79
2022/05/03 02:07:48;;;;;;;20.65;11.05;;;;;;;;;;5071564;28;20132;-79
2022/05/03 02:10:33;;;;;;;22.73;11.30;;;;;;;;;;5077387;28;20066;-78
2022/05/03 02:13:04;;;;;;;20.58;11.68;;;;;;;;;;5077138;28;20385;-79
2022/05/03 02:15:40;;;;;;;23.33;11.55;;;;;;;;;;5071951;28;20036;-79
2022/05/03 02:18:14;;;;;;;26.13;12.32;;;;;;;;;;5077663;28;20376;-78
2022/05/03 02:20:45;;;;;;;23.73;11.73;;;;;;;;;;5057179;28;20071;-79
2022/05/03 02:23:12;;;;;;;22.27;11.70;;;;;;;;;;5078167;28;20389;-79
2022/05/03 02:25:41;;;;;;;23.58;12.02;;;;;;;;;;5077369;28;20048;-79
2022/05/03 02:28:26;;;;;;;19.83;12.25;;;;;;;;;;5076976;28;20357;-79
2022/05/03 02:30:52;;;;;;;19.45;12.07;;;;;;;;;;5081235;28;20036;-79
2022/05/03 02:33:33;;;;;;;24.23;13.15;;;;;;;;;;5056394;28;20072;-79
2022/05/03 02:36:00;;;;;;;25.63;13.05;;;;;;;;;;5092139;28;20044;-79
2022/05/03 02:38:30;;;;;;;21.80;12.25;;;;;;;;;;5081977;28;20446;-79
2022/05/03 02:40:59;;;;;;;23.35;13.20;;;;;;;;;;5074709;28;20036;-79
2022/05/03 02:43:27;;;;;;;23.52;12.75;;;;;;;;;;5077311;28;20100;-79
2022/05/03 02:45:57;;;;;;;24.05;12.02;;;;;;;;;;5080687;28;20123;-79
2022/05/03 02:48:30;;;;;;;22.58;12.43;;;;;;;;;;5076695;28;20089;-79
2022/05/03 02:51:03;;;;;;;24.63;12.63;;;;;;;;;;5080695;28;20044;-79
2022/05/03 02:53:48;;;;;;;19.73;11.25;;;;;;;;;;5061678;28;20044;-79
2022/05/03 02:56:14;;;;;;;21.73;12.55;;;;;;;;;;5072860;28;20044;-79
2022/05/03 02:58:58;;;;;;;20.63;12.10;;;;;;;;;;5077126;28;20051;-79
2022/05/03 03:01:49;;;;;;;21.27;12.07;;;;;;;;;;5076969;28;20510;-79
2022/05/03 03:04:34;;;;;;;17.50;10.82;;;;;;;;;;5075588;28;20031;-79
2022/05/03 03:07:00;;;;;;;18.65;10.52;;;;;;;;;;5079168;28;20621;-79
2022/05/03 03:09:30;;;;;;;20.15;10.93;;;;;;;;;;5060401;28;20037;-79
2022/05/03 03:11:59;;;;;;;17.83;10.75;;;;;;;;;;5075787;28;20127;-79
2022/05/03 03:14:28;;;;;;;19.02;11.10;;;;;;;;;;5079189;28;20048;-79
2022/05/03 03:16:57;;;;;;;19.70;10.98;;;;;;;;;;5079174;28;20064;-79
2022/05/03 03:19:38;;;;;;;15.82;10.38;;;;;;;;;;5083247;28;20471;-79
2022/05/03 03:22:12;;;;;;;17.23;10.68;;;;;;;;;;5072579;28;20037;-79
2022/05/03 03:24:39;;;;;;;18.88;10.80;;;;;;;;;;5078072;28;20037;-79
2022/05/03 03:27:06;;;;;;;19.38;10.25;;;;;;;;;;5073208;28;20044;-79
2022/05/03 03:29:32;;;;;;;19.95;10.40;;;;;;;;;;5073737;28;20433;-79
2022/05/03 03:32:00;;;;;;;19.60;10.95;;;;;;;;;;5074275;28;20184;-79
2022/05/03 03:34:28;;;;;;;19.33;10.65;;;;;;;;;;5064235;28;20593;-79
2022/05/03 03:37:01;;;;;;;17.17;11.40;;;;;;;;;;5065615;28;20047;-79
2022/05/03 03:39:30;;;;;;;16.83;11.10;;;;;;;;;;5075815;28;20056;-79
2022/05/03 03:41:59;;;;;;;18.63;10.90;;;;;;;;;;5075964;28;20492;-79
2022/05/03 03:44:26;;;;;;;19.92;11.60;;;;;;;;;;5068017;28;20044;-79
2022/05/03 03:46:52;;;;;;;17.75;10.82;;;;;;;;;;5066967;28;20036;-79
2022/05/03 03:49:18;;;;;;;18.88;11.65;;;;;;;;;;5073943;28;20476;-79
2022/05/03 03:51:46;;;;;;;19.35;11.20;;;;;;;;;;5074930;28;20051;-79
2022/05/03 03:54:12;;;;;;;17.45;10.90;;;;;;;;;;5079864;28;20048;-79
2022/05/03 03:56:39;;;;;;;18.10;10.90;;;;;;;;;;5060511;28;20039;-79
2022/05/03 03:59:05;;;;;;;20.70;11.60;;;;;;;;;;5075762;28;20044;-79
2022/05/03 04:01:32;;;;;;;18.42;12.18;;;;;;;;;;5070458;28;20036;-80
2022/05/03 04:03:58;;;;;;;19.75;12.77;;;;;;;;;;5072813;28;20094;-80
2022/05/03 04:06:24;;;;;;;17.73;11.73;;;;;;;;;;5064215;28;20051;-80
2022/05/03 04:08:50;;;;;;;22.48;12.40;;;;;;;;;;5063988;28;20065;-81
2022/05/03 04:11:17;;;;;;;19.15;12.15;;;;;;;;;;5080241;28;20036;-81
2022/05/03 04:13:44;;;;;;;18.83;11.52;;;;;;;;;;5070767;28;20344;-81
2022/05/03 04:16:10;;;;;;;18.38;11.35;;;;;;;;;;5063278;28;20093;-81
2022/05/03 04:18:45;;;;;;;18.60;11.82;;;;;;;;;;5084553;28;20506;-81
2022/05/03 04:21:16;;;;;;;20.65;11.82;;;;;;;;;;5080024;28;20040;-81
2022/05/03 04:23:42;;;;;;;21.17;12.75;;;;;;;;;;5078346;28;20081;-81
2022/05/03 04:26:11;;;;;;;22.90;12.65;;;;;;;;;;5074792;28;20048;-81
2022/05/03 04:28:39;;;;;;;18.42;11.88;;;;;;;;;;5077770;28;20039;-81
2022/05/03 04:31:05;;;;;;;19.20;12.85;;;;;;;;;;5078931;28;20036;-81
2022/05/03 04:33:32;;;;;;;21.27;13.57;;;;;;;;;;5069986;28;20064;-81
2022/05/03 04:35:58;;;;;;;22.58;14.23;;;;;;;;;;5075519;28;20127;-81
2022/05/03 04:38:24;;;;;;;24.33;15.27;;;;;;;;;;5060308;28;20441;-81
2022/05/03 04:40:50;;;;;;;21.00;13.93;;;;;;;;;;5059030;28;20061;-81
2022/05/03 04:43:17;;;;;;;22.95;14.52;;;;;;;;;;5060633;28;20036;-81
2022/05/03 04:45:43;;;;;;;23.63;15.57;;;;;;;;;;5049489;28;20055;-81
2022/05/03 04:48:09;;;;;;;20.08;14.00;;;;;;;;;;5075529;28;20083;-81
2022/05/03 04:50:35;;;;;;;21.08;14.30;;;;;;;;;;5083535;28;20111;-81
2022/05/03 04:53:01;;;;;;;19.27;13.95;;;;;;;;;;5080358;28;20036;-81
2022/05/03 04:55:28;;;;;;;22.63;14.45;;;;;;;;;;5075430;28;20037;-81
2022/05/03 04:57:54;;;;;;;22.10;15.40;;;;;;;;;;5076091;28;20502;-81
2022/05/03 05:00:21;;;;;;;23.20;15.43;;;;;;;;;;5071930;28;20094;-81
2022/05/03 05:02:49;;;;;;;20.17;14.73;;;;;;;;;;5034398;28;20033;-82
2022/05/03 05:05:15;;;;;;;20.65;14.82;;;;;;;;;;5077771;28;20032;-81
2022/05/03 05:07:41;;;;;;;20.67;14.80;;;;;;;;;;5062312;28;20516;-82
2022/05/03 05:10:23;;;;;;;19.33;13.98;;;;;;;;;;5076580;28;20040;-82
2022/05/03 05:12:49;;;;;;;22.10;14.52;;;;;;;;;;5071788;28;20032;-81
2022/05/03 05:15:16;;;;;;;21.75;14.85;;;;;;;;;;5080795;28;20507;-81
2022/05/03 05:17:42;;;;;;;20.08;13.75;;;;;;;;;;5071691;28;20494;-81
2022/05/03 05:20:08;;;;;;;21.45;14.80;;;;;;;;;;5067791;28;20507;-82
2022/05/03 05:22:34;;;;;;;26.83;17.13;;;;;;;;;;5040421;28;20040;-80
2022/05/03 05:25:00;;;;;;;24.77;16.60;;;;;;;;;;5044454;28;20052;-81
2022/05/03 05:27:26;;;;;;;25.52;17.25;;;;;;;;;;5028903;28;20079;-82
2022/05/03 05:29:52;;;;;;;22.83;15.93;;;;;;;;;;5059805;28;20040;-81
2022/05/03 05:32:19;;;;;;;28.58;18.77;;;;;;;;;;5054008;28;20049;-79
2022/05/03 05:34:45;;;;;;;26.45;17.35;;;;;;;;;;5076741;28;20081;-81
2022/05/03 05:37:11;;;;;;;26.58;17.23;;;;;;;;;;5057615;28;20500;-81
2022/05/03 05:39:37;;;;;;;28.63;17.52;;;;;;;;;;5074127;28;20041;-81
2022/05/03 05:42:04;;;;;;;25.10;17.08;;;;;;;;;;5078496;28;20369;-81
2022/05/03 05:44:30;;;;;;;25.42;17.10;;;;;;;;;;5075967;28;20059;-81
2022/05/03 05:46:56;;;;;;;24.20;15.65;;;;;;;;;;5079290;28;20036;-82
2022/05/03 05:49:22;;;;;;;24.58;16.30;;;;;;;;;;5078261;28;20123;-82
2022/05/03 05:51:48;;;;;;;24.05;16.10;;;;;;;;;;5065476;28;20098;-82
2022/05/03 05:54:17;;;;;;;25.27;16.30;;;;;;;;;;5068542;28;20829;-82
2022/05/03 05:56:44;;;;;;;23.65;16.17;;;;;;;;;;5087311;28;20038;-81
2022/05/03 05:59:11;;;;;;;22.00;16.20;;;;;;;;;;5078961;28;20044;-81
2022/05/03 06:01:38;;;;;;;23.70;15.73;;;;;;;;;;5065875;28;20028;-82
2022/05/03 06:04:04;;;;;;;22.42;15.88;;;;;;;;;;5079460;28;20044;-83
2022/05/03 06:06:32;;;;;;;22.23;15.80;;;;;;;;;;5086534;28;20051;-82
2022/05/03 06:08:59;;;;;;;23.30;16.00;;;;;;;;;;5080103;28;20059;-82
2022/05/03 06:11:26;;;;;;;23.33;16.08;;;;;;;;;;5082550;28;20044;-82
2022/05/03 06:13:52;;;;;;;24.58;17.38;;;;;;;;;;5074094;28;20083;-82
2022/05/03 06:16:19;;;;;;;21.63;15.27;;;;;;;;;;5079083;28;20040;-82
2022/05/03 06:18:45;;;;;;;23.10;16.35;;;;;;;;;;5083935;28;20548;-82
2022/05/03 06:21:12;;;;;;;21.73;15.48;;;;;;;;;;5076236;28;20098;-81
2022/05/03 06:23:38;;;;;;;23.00;15.60;;;;;;;;;;5074301;28;20061;-82
2022/05/03 06:26:05;;;;;;;22.38;15.10;;;;;;;;;;5096943;28;20096;-82
2022/05/03 06:28:32;;;;;;;20.98;14.50;;;;;;;;;;5075766;28;20045;-82
2022/05/03 06:30:58;;;;;;;23.02;15.65;;;;;;;;;;5067510;28;20035;-82
2022/05/03 06:33:24;;;;;;;22.27;16.92;;;;;;;;;;5078239;28;20399;-82
2022/05/03 06:35:50;;;;;;;26.10;16.92;;;;;;;;;;5082841;28;20055;-82
2022/05/03 06:38:16;;;;;;;28.98;17.67;;;;;;;;;;5076806;28;20040;-82
2022/05/03 06:40:42;;;;;;;27.52;18.38;;;;;;;;;;5082547;28;20036;-81
2022/05/03 06:43:09;;;;;;;27.90;18.70;;;;;;;;;;5055908;28;20040;-82
2022/05/03 06:45:35;;;;;;;23.85;16.65;;;;;;;;;;5074834;28;20059;-82
2022/05/03 06:48:01;;;;;;;26.85;17.60;;;;;;;;;;5081788;28;21030;-81
2022/05/03 06:50:29;;;;;;;29.73;18.52;;;;;;;;;;5096201;28;20120;-81
2022/05/03 06:52:56;;;;;;;32.08;19.30;;;;;;;;;;5079620;28;20039;-81
2022/05/03 06:55:22;;;;;;;34.17;20.25;;;;;;;;;;5071986;28;20094;-82
2022/05/03 06:57:48;;;;;;;39.20;20.27;;;;;;;;;;5080931;28;20036;-80
2022/05/03 07:00:14;;;;;;;40.92;22.80;;;;;;;;;;5071924;28;20110;-80
2022/05/03 07:02:44;;;;;;;41.28;23.10;;;;;;;;;;5060313;28;20040;-80
2022/05/03 07:05:10;;;;;;;52.08;23.90;;;;;;;;;;5075046;28;20636;-81
2022/05/03 07:07:36;;;;;;;45.72;23.60;;;;;;;;;;5076550;28;20127;-81
2022/05/03 07:10:03;;;;;;;52.17;23.27;;;;;;;;;;5081080;28;20048;-80
2022/05/03 07:12:30;;;;;;;44.22;22.80;;;;;;;;;;5083448;28;20046;-80
2022/05/03 07:14:59;;;;;;;42.70;22.58;;;;;;;;;;5080615;28;20041;-80
2022/05/03 07:22:55;;;;;;;57.88;27.48;;;;;;;;;;5090398;28;20044;-80
2022/05/03 07:25:22;;;;;;;64.22;28.63;;;;;;;;;;5074301;28;20042;-84
2022/05/03 07:27:48;;;;;;;46.40;23.48;;;;;;;;;;5067849;28;20044;-84
2022/05/03 07:30:15;;;;;;;50.40;26.00;;;;;;;;;;5062988;28;20040;-85
2022/05/03 07:32:42;;;;;;;44.05;24.73;;;;;;;;;;5090061;28;20506;-85
2022/05/03 07:35:08;;;;;;;41.88;23.10;;;;;;;;;;5047447;28;20048;-83
2022/05/03 07:37:34;;;;;;;39.30;21.33;;;;;;;;;;5077376;28;20040;-84
2022/05/03 07:40:00;;;;;;;40.10;23.15;;;;;;;;;;5080744;28;20060;-84
2022/05/03 07:42:26;;;;;;;33.53;20.38;;;;;;;;;;5078661;28;20491;-84
2022/05/03 07:44:52;;;;;;;33.22;18.10;;;;;;;;;;5098241;28;20102;-85
2022/05/03 07:47:19;;;;;;;33.85;17.92;;;;;;;;;;5073216;28;20040;-84
2022/05/03 07:49:45;;;;;;;32.53;18.23;;;;;;;;;;5059532;28;20039;-83
2022/05/03 07:52:11;;;;;;;34.85;17.20;;;;;;;;;;5077030;28;20392;-83
2022/05/03 07:54:41;;;;;;;23.70;15.30;;;;;;;;;;5080691;28;20110;-83
2022/05/03 07:57:07;;;;;;;30.23;17.10;;;;;;;;;;5067473;28;20040;-84
2022/05/03 07:59:34;;;;;;;26.50;15.52;;;;;;;;;;5073375;28;20040;-86
2022/05/03 08:02:00;;;;;;;20.30;12.85;;;;;;;;;;5057499;28;20043;-84
2022/05/03 08:04:26;;;;;;;21.45;13.93;;;;;;;;;;5069217;28;20427;-83
2022/05/03 08:06:52;;;;;;;19.33;12.23;;;;;;;;;;5072518;28;20051;-86
2022/05/03 08:09:19;;;;;;;21.73;13.02;;;;;;;;;;5072669;28;20036;-84
2022/05/03 08:11:45;;;;;;;21.05;12.50;;;;;;;;;;5074620;28;20047;-84
2022/05/03 08:14:11;;;;;;;17.77;11.02;;;;;;;;;;5033294;28;20040;-83
2022/05/03 08:16:38;;;;;;;16.58;11.27;;;;;;;;;;5075235;28;20045;-83
2022/05/03 08:19:04;;;;;;;17.92;10.63;;;;;;;;;;5075291;28;20047;-83
2022/05/03 08:21:35;;;;;;;14.20;9.27;;;;;;;;;;5066752;28;20059;-83
2022/05/03 08:24:01;;;;;;;12.73;7.40;;;;;;;;;;5079958;28;20073;-84
2022/05/03 08:26:29;;;;;;;10.00;5.90;;;;;;;;;;5054075;28;20055;-83
2022/05/03 08:28:56;;;;;;;9.93;5.63;;;;;;;;;;5054832;28;20044;-84
2022/05/03 08:31:22;;;;;;;10.75;6.00;;;;;;;;;;5058445;28;20435;-83
2022/05/03 08:33:48;;;;;;;9.68;5.78;;;;;;;;;;5081112;28;20036;-84
2022/05/03 08:36:15;;;;;;;12.95;6.40;;;;;;;;;;5050395;28;20094;-83
2022/05/03 08:44:10;;;;;;;11.25;5.10;;;;;;;;;;5067056;28;20403;-83
2022/05/03 08:46:37;;;;;;;15.27;5.30;;;;;;;;;;5065351;28;20159;-84
2022/05/03 08:49:04;;;;;;;14.85;5.35;;;;;;;;;;5048240;28;20074;-83
2022/05/03 08:51:31;;;;;;;14.07;5.07;;;;;;;;;;5068388;28;20044;-82
2022/05/03 08:53:58;;;;;;;16.23;5.82;;;;;;;;;;5054206;28;20043;-83
2022/05/03 08:56:24;;;;;;;14.23;5.00;;;;;;;;;;5085848;28;20043;-83
2022/05/03 08:58:51;;;;;;;13.05;4.90;;;;;;;;;;5068339;28;20492;-83
2022/05/03 09:01:18;;;;;;;11.27;5.05;;;;;;;;;;5055779;28;20115;-83
2022/05/03 09:03:44;;;;;;;14.23;5.18;;;;;;;;;;5069915;28;20075;-84
2022/05/03 09:06:12;;;;;;;11.80;5.45;;;;;;;;;;5071695;28;20514;-83
2022/05/03 09:08:39;;;;;;;15.00;5.50;;;;;;;;;;5072068;28;20040;-82
2022/05/03 09:11:16;;;;;;;15.75;5.65;;;;;;;;;;5055692;28;20524;-83
2022/05/03 09:13:42;;;;;;;13.30;5.90;;;;;;;;;;5079180;28;20031;-82
2022/05/03 09:16:11;;;;;;;14.52;6.15;;;;;;;;;;5080954;28;20040;-84
2022/05/03 09:18:37;;;;;;;18.30;6.00;;;;;;;;;;5078157;28;20028;-84
2022/05/03 09:24:01;;;;;;;13.70;5.65;;;;;;;;;;5091953;28;20036;-82
2022/05/03 09:26:31;;;;;;;18.75;6.57;;;;;;;;;;5079902;28;20097;-83
2022/05/03 09:29:01;;;;;;;14.57;6.05;;;;;;;;;;5080700;28;20054;-83
2022/05/03 09:31:30;;;;;;;15.25;6.07;;;;;;;;;;5064881;28;20391;-83
2022/05/03 09:33:57;;;;;;;17.58;6.47;;;;;;;;;;5068831;28;20039;-83
2022/05/03 09:36:23;;;;;;;14.23;5.85;;;;;;;;;;5076975;28;20036;-85
2022/05/03 09:38:55;;;;;;;17.08;6.05;;;;;;;;;;5078699;28;20044;-84
2022/05/03 09:41:21;;;;;;;17.45;6.32;;;;;;;;;;5077729;28;20243;-84
2022/05/03 09:44:02;;;;;;;17.58;6.20;;;;;;;;;;5074020;28;20033;-84
2022/05/03 09:46:29;;;;;;;19.98;6.18;;;;;;;;;;5087387;28;20075;-84
2022/05/03 09:49:00;;;;;;;17.05;6.10;;;;;;;;;;5072428;28;20044;-82
2022/05/03 09:51:28;;;;;;;19.40;6.22;;;;;;;;;;5071339;28;20400;-84
2022/05/03 09:53:58;;;;;;;22.45;6.20;;;;;;;;;;5076022;28;20046;-84
2022/05/03 09:56:26;;;;;;;22.73;5.93;;;;;;;;;;5056479;28;20116;-80
2022/05/03 09:58:56;;;;;;;18.38;6.28;;;;;;;;;;5077287;28;20393;-81
2022/05/03 10:01:23;;;;;;;19.20;5.72;;;;;;;;;;5067808;28;20041;-81
2022/05/03 10:03:49;;;;;;;20.08;5.85;;;;;;;;;;5062041;28;20048;-80
2022/05/03 10:06:15;;;;;;;18.00;5.88;;;;;;;;;;5077297;28;20110;-80
2022/05/03 10:08:44;;;;;;;16.92;5.90;;;;;;;;;;5070412;28;20067;-79
2022/05/03 10:11:11;;;;;;;20.40;6.15;;;;;;;;;;5073896;28;20052;-82
2022/05/03 10:13:37;;;;;;;24.52;5.90;;;;;;;;;;5083744;28;20036;-81
2022/05/03 10:21:35;;;;;;;19.48;5.72;;;;;;;;;;5072741;28;20036;-81
2022/05/03 10:24:03;;;;;;;19.25;5.45;;;;;;;;;;5077830;28;20082;-80
2022/05/03 10:26:56;;;;;;;14.60;4.85;;;;;;;;;;5082258;28;20067;-80
2022/05/03 10:29:26;;;;;;;19.25;5.43;;;;;;;;;;5076155;28;20048;-80
2022/05/03 10:31:54;;;;;;;18.60;5.07;;;;;;;;;;5056906;28;20040;-81
2022/05/03 10:34:47;;;;;;;13.55;4.82;;;;;;;;;;5088971;28;20166;-81
2022/05/03 10:37:14;;;;;;;15.02;4.82;;;;;;;;;;5082191;28;20048;-81
2022/05/03 10:39:47;;;;;;;12.70;4.63;;;;;;;;;;5072770;28;20159;-81
2022/05/03 10:42:14;;;;;;;16.52;4.90;;;;;;;;;;5066339;28;20119;-81
2022/05/03 10:44:41;;;;;;;14.02;4.55;;;;;;;;;;5074120;28;20048;-81
2022/05/03 10:47:07;;;;;;;14.70;4.80;;;;;;;;;;5069168;28;20071;-81
2022/05/03 10:49:34;;;;;;;14.15;4.57;;;;;;;;;;5036167;28;20039;-80
2022/05/03 10:52:00;;;;;;;14.43;4.32;;;;;;;;;;5069424;28;20045;-81
2022/05/03 10:54:26;;;;;;;14.18;4.22;;;;;;;;;;5084088;28;20487;-84
2022/05/03 10:57:04;;;;;;;18.38;4.80;;;;;;;;;;5070174;28;20396;-82
2022/05/03 10:59:47;;;;;;;11.05;4.25;;;;;;;;;;5069745;28;20088;-83
2022/05/03 11:02:13;;;;;;;11.95;3.85;;;;;;;;;;5073756;28;20253;-84
2022/05/03 11:04:58;;;;;;;20.05;4.00;;;;;;;;;;5076709;28;20063;-82
2022/05/03 11:07:24;;;;;;;13.23;3.85;;;;;;;;;;5051657;28;20033;-83
2022/05/03 11:09:50;;;;;;;14.65;4.13;;;;;;;;;;5072132;28;20040;-83
2022/05/03 11:12:17;;;;;;;16.25;3.92;;;;;;;;;;5054725;28;20044;-84
2022/05/03 11:14:45;;;;;;;9.45;3.40;;;;;;;;;;5080755;28;20044;-84
2022/05/03 11:17:12;;;;;;;14.95;3.75;;;;;;;;;;5077207;28;20413;-84
2022/05/03 11:19:47;;;;;;;9.68;3.45;;;;;;;;;;5078855;28;20100;-83
2022/05/03 11:22:20;;;;;;;12.60;3.10;;;;;;;;;;5076505;28;20086;-83
2022/05/03 11:24:48;;;;;;;9.85;2.95;;;;;;;;;;5090523;28;20075;-84
2022/05/03 11:27:15;;;;;;;11.52;2.85;;;;;;;;;;5077806;28;20032;-84
2022/05/03 11:29:44;;;;;;;11.98;3.25;;;;;;;;;;5082157;28;20512;-87
2022/05/03 11:32:11;;;;;;;10.30;3.10;;;;;;;;;;5097750;28;20131;-83
2022/05/03 11:34:38;;;;;;;10.25;3.00;;;;;;;;;;5076038;28;20043;-83
2022/05/03 11:37:04;;;;;;;9.07;3.30;;;;;;;;;;5058935;28;20048;-84
2022/05/03 11:39:32;;;;;;;9.65;3.15;;;;;;;;;;5041597;28;20105;-84
2022/05/03 11:41:58;;;;;;;10.70;3.15;;;;;;;;;;5080905;28;20044;-85
2022/05/03 11:44:27;;;;;;;8.80;3.00;;;;;;;;;;5074803;28;20058;-86
2022/05/03 11:46:53;;;;;;;9.20;2.90;;;;;;;;;;5072747;28;20068;-84
2022/05/03 11:49:21;;;;;;;10.30;3.08;;;;;;;;;;5065210;28;20058;-87
2022/05/03 11:57:26;;;;;;;8.50;3.15;;;;;;;;;;5070822;28;20029;-84
2022/05/03 11:59:55;;;;;;;11.40;3.28;;;;;;;;;;5097559;28;20040;-84
2022/05/03 12:02:33;;;;;;;10.48;2.88;;;;;;;;;;5082588;28;20036;-85
2022/05/03 12:05:02;;;;;;;10.52;3.30;;;;;;;;;;5055121;28;20135;-81
2022/05/03 12:07:28;;;;;;;10.98;3.05;;;;;;;;;;5059960;28;20747;-81
2022/05/03 12:09:55;;;;;;;9.07;2.55;;;;;;;;;;5076992;28;20130;-81
2022/05/03 12:12:43;;;;;;;9.52;3.10;;;;;;;;;;5065449;28;20043;-80
2022/05/03 12:15:15;;;;;;;7.93;2.55;;;;;;;;;;5080307;28;20096;-80
2022/05/03 12:18:18;;;;;;;9.32;2.90;;;;;;;;;;5071592;28;20032;-81
2022/05/03 12:20:46;;;;;;;10.63;3.15;;;;;;;;;;5045730;28;20053;-81
2022/05/03 12:23:15;;;;;;;10.95;3.15;;;;;;;;;;5080386;28;20070;-81
2022/05/03 12:25:49;;;;;;;8.98;2.53;;;;;;;;;;5068726;28;20032;-81
2022/05/03 12:28:16;;;;;;;7.28;2.50;;;;;;;;;;5067840;28;20086;-82
2022/05/03 12:30:42;;;;;;;10.57;3.40;;;;;;;;;;5076887;28;20122;-85
2022/05/03 12:33:09;;;;;;;8.43;2.75;;;;;;;;;;5078197;28;20043;-85
2022/05/03 12:35:38;;;;;;;8.30;3.00;;;;;;;;;;5074556;28;20041;-83
2022/05/03 12:38:14;;;;;;;11.38;2.80;;;;;;;;;;5071705;28;20048;-81
2022/05/03 12:41:09;;;;;;;8.50;2.50;;;;;;;;;;5065246;28;20049;-81
2022/05/03 12:43:35;;;;;;;8.52;2.78;;;;;;;;;;5067970;28;20740;-82
2022/05/03 12:46:01;;;;;;;10.05;2.53;;;;;;;;;;5069349;28;20041;-82
2022/05/03 12:48:28;;;;;;;6.38;2.30;;;;;;;;;;5072352;28;20048;-82
2022/05/03 12:50:55;;;;;;;5.70;2.70;;;;;;;;;;5065965;28;20135;-81
2022/05/03 12:53:25;;;;;;;9.32;2.30;;;;;;;;;;5078363;28;20358;-81
2022/05/03 12:55:52;;;;;;;7.53;2.63;;;;;;;;;;5076962;28;20048;-82
2022/05/03 12:58:25;;;;;;;6.90;2.40;;;;;;;;;;5070835;28;20029;-80
2022/05/03 13:00:55;;;;;;;6.63;2.70;;;;;;;;;;5055067;28;20107;-81
2022/05/03 13:03:21;;;;;;;7.07;2.40;;;;;;;;;;5066490;28;20044;-79
2022/05/03 13:05:49;;;;;;;6.10;2.50;;;;;;;;;;5073327;28;20033;-81
2022/05/03 13:08:18;;;;;;;8.10;2.60;;;;;;;;;;5084358;28;20055;-81
2022/05/03 13:10:45;;;;;;;8.93;2.65;;;;;;;;;;5088448;28;20047;-80
2022/05/03 13:13:12;;;;;;;9.32;2.58;;;;;;;;;;5080137;28;20040;-83
2022/05/03 13:15:38;;;;;;;6.88;2.38;;;;;;;;;;5077654;28;20036;-83
2022/05/03 13:18:05;;;;;;;8.68;2.42;;;;;;;;;;5079943;28;20495;-82
2022/05/03 13:20:31;;;;;;;10.32;2.95;;;;;;;;;;5073856;28;20465;-83
2022/05/03 13:22:58;;;;;;;7.35;2.83;;;;;;;;;;5082986;28;20038;-82
2022/05/03 13:25:24;;;;;;;6.53;2.22;;;;;;;;;;5084129;28;20477;-83
2022/05/03 13:27:53;;;;;;;7.53;2.63;;;;;;;;;;5077544;28;20103;-83
2022/05/03 13:30:19;;;;;;;7.35;2.08;;;;;;;;;;5095317;28;20041;-81
2022/05/03 13:32:45;;;;;;;7.70;2.55;;;;;;;;;;5084572;28;20039;-82
2022/05/03 13:35:11;;;;;;;8.88;2.47;;;;;;;;;;5052592;28;20447;-82
2022/05/03 13:40:28;;;;;;;6.00;2.10;;;;;;;;;;5081853;28;20113;-82
2022/05/03 13:42:55;;;;;;;5.13;2.08;;;;;;;;;;5060237;28;20036;-83
2022/05/03 13:45:21;;;;;;;5.55;1.95;;;;;;;;;;5064333;28;20041;-81
2022/05/03 13:47:47;;;;;;;7.57;2.20;;;;;;;;;;5080633;28;20037;-81
2022/05/03 13:50:13;;;;;;;7.68;2.22;;;;;;;;;;5076849;28;20127;-81
2022/05/03 13:52:41;;;;;;;7.95;2.50;;;;;;;;;;5059786;28;20220;-81
2022/05/03 13:55:07;;;;;;;9.00;2.50;;;;;;;;;;5053523;28;20500;-80
2022/05/03 13:57:33;;;;;;;4.97;1.92;;;;;;;;;;5080717;28;20028;-82
2022/05/03 13:59:59;;;;;;;7.45;2.63;;;;;;;;;;5076078;28;20058;-81
2022/05/03 14:02:26;;;;;;;6.05;2.08;;;;;;;;;;5083100;28;20071;-80
2022/05/03 14:04:52;;;;;;;6.20;2.00;;;;;;;;;;5071986;28;20035;-80
2022/05/03 14:07:18;;;;;;;8.73;2.35;;;;;;;;;;5072020;28;20093;-81
2022/05/03 14:09:45;;;;;;;5.15;2.40;;;;;;;;;;5077104;28;20117;-80
2022/05/03 14:12:11;;;;;;;8.60;2.35;;;;;;;;;;5060840;28;20087;-82
2022/05/03 14:14:38;;;;;;;6.80;2.17;;;;;;;;;;5053048;28;20047;-82
2022/05/03 14:17:05;;;;;;;7.35;2.40;;;;;;;;;;5069659;28;20044;-80
2022/05/03 14:19:31;;;;;;;5.90;2.30;;;;;;;;;;5068933;28;20046;-82
2022/05/03 14:21:58;;;;;;;8.88;2.58;;;;;;;;;;5082591;28;20552;-80
2022/05/03 14:24:24;;;;;;;7.75;2.42;;;;;;;;;;5052362;28;20411;-81
2022/05/03 14:26:50;;;;;;;6.00;2.30;;;;;;;;;;5073397;28;20047;-80
2022/05/03 14:29:17;;;;;;;5.22;2.20;;;;;;;;;;5082221;28;20041;-81
2022/05/03 14:31:44;;;;;;;5.03;1.98;;;;;;;;;;5063669;28;20074;-80
2022/05/03 14:34:10;;;;;;;8.57;2.83;;;;;;;;;;5075116;28;20055;-81
2022/05/03 14:36:36;;;;;;;5.32;2.00;;;;;;;;;;5067980;28;20097;-80
2022/05/03 14:39:06;;;;;;;7.82;2.55;;;;;;;;;;5069112;28;20075;-82
2022/05/03 14:41:32;;;;;;;7.75;2.20;;;;;;;;;;5051342;28;20040;-81
2022/05/03 14:43:58;;;;;;;5.22;2.00;;;;;;;;;;5048219;28;20048;-81
2022/05/03 14:46:24;;;;;;;5.65;1.95;;;;;;;;;;5070159;28;20043;-80
2022/05/03 14:48:50;;;;;;;10.13;2.40;;;;;;;;;;5071324;28;20097;-81
2022/05/03 14:51:16;;;;;;;6.70;1.92;;;;;;;;;;5051534;28;20859;-80
2022/05/03 14:53:42;;;;;;;6.57;2.10;;;;;;;;;;5075365;28;20028;-80
2022/05/03 15:04:22;;;;;;;7.70;2.50;;;;;;;;;;5070809;28;20041;-81
2022/05/03 15:06:48;;;;;;;11.05;2.70;;;;;;;;;;5068374;28;20404;-81
2022/05/03 15:09:14;;;;;;;6.35;1.98;;;;;;;;;;5051356;28;20044;-81
2022/05/03 15:11:40;;;;;;;6.45;2.08;;;;;;;;;;5076830;28;20042;-82
2022/05/03 15:14:07;;;;;;;8.50;2.25;;;;;;;;;;5068445;28;20087;-81